sensor_id;sensor_type;location;lat;lon;timestamp;P1;durP1;ratioP1;P2;durP2;ratioP2
37339;SDS011;23223;51.006;7.610;2022-07-10T00:00:24;9.13;;;1.30;;
37339;SDS011;23223;51.006;7.610;2022-07-10T00:02:51;3.33;;;1.20;;
37339;SDS011;23223;51.006;7.610;2022-07-10T00:05:19;2.65;;;1.10;;
37339;SDS011;23223;51.006;7.610;2022-07-10T00:07:46;6.55;;;1.15;;
37339;SDS011;23223;51.006;7.610;2022-07-10T00:10:12;6.20;;;1.60;;
37339;SDS011;23223;51.006;7.610;2022-07-10T00:12:37;6.40;;;1.45;;
37339;SDS011;23223;51.006;7.610;2022-07-10T00:15:04;5.65;;;1.33;;
37339;SDS011;23223;51.006;7.610;2022-07-10T00:17:30;7.22;;;1.58;;
37339;SDS011;23223;51.006;7.610;2022-07-10T00:19:56;6.72;;;1.55;;
37339;SDS011;23223;51.006;7.610;2022-07-10T00:22:22;5.50;;;1.30;;
37339;SDS011;23223;51.006;7.610;2022-07-10T00:24:47;6.32;;;1.67;;
37339;SDS011;23223;51.006;7.610;2022-07-10T00:27:15;5.28;;;2.42;;
37339;SDS011;23223;51.006;7.610;2022-07-10T00:29:41;8.20;;;2.65;;
37339;SDS011;23223;51.006;7.610;2022-07-10T00:32:07;8.73;;;1.73;;
37339;SDS011;23223;51.006;7.610;2022-07-10T00:34:33;3.92;;;1.20;;
37339;SDS011;23223;51.006;7.610;2022-07-10T00:36:58;7.47;;;3.92;;
37339;SDS011;23223;51.006;7.610;2022-07-10T00:39:25;4.97;;;1.52;;
37339;SDS011;23223;51.006;7.610;2022-07-10T00:41:51;7.57;;;1.50;;
37339;SDS011;23223;51.006;7.610;2022-07-10T00:44:17;3.53;;;1.38;;
37339;SDS011;23223;51.006;7.610;2022-07-10T00:46:42;3.67;;;1.10;;
37339;SDS011;23223;51.006;7.610;2022-07-10T00:49:08;1.83;;;1.10;;
37339;SDS011;23223;51.006;7.610;2022-07-10T00:51:33;4.78;;;1.38;;
37339;SDS011;23223;51.006;7.610;2022-07-10T00:53:59;2.70;;;1.20;;
37339;SDS011;23223;51.006;7.610;2022-07-10T00:56:25;3.03;;;1.30;;
37339;SDS011;23223;51.006;7.610;2022-07-10T00:58:52;2.85;;;1.20;;
37339;SDS011;23223;51.006;7.610;2022-07-10T01:01:19;3.70;;;1.10;;
37339;SDS011;23223;51.006;7.610;2022-07-10T01:03:47;7.65;;;1.10;;
37339;SDS011;23223;51.006;7.610;2022-07-10T01:06:13;3.13;;;1.10;;
37339;SDS011;23223;51.006;7.610;2022-07-10T01:08:41;9.88;;;1.40;;
37339;SDS011;23223;51.006;7.610;2022-07-10T01:11:08;8.50;;;1.25;;
37339;SDS011;23223;51.006;7.610;2022-07-10T01:13:35;5.60;;;1.27;;
37339;SDS011;23223;51.006;7.610;2022-07-10T01:16:01;5.30;;;1.33;;
37339;SDS011;23223;51.006;7.610;2022-07-10T01:18:27;6.63;;;1.45;;
37339;SDS011;23223;51.006;7.610;2022-07-10T01:20:53;9.43;;;1.63;;
37339;SDS011;23223;51.006;7.610;2022-07-10T01:23:19;4.68;;;1.42;;
37339;SDS011;23223;51.006;7.610;2022-07-10T01:25:45;3.22;;;1.42;;
37339;SDS011;23223;51.006;7.610;2022-07-10T01:28:11;3.63;;;1.20;;
37339;SDS011;23223;51.006;7.610;2022-07-10T01:30:36;2.70;;;1.05;;
37339;SDS011;23223;51.006;7.610;2022-07-10T01:33:02;4.18;;;1.17;;
37339;SDS011;23223;51.006;7.610;2022-07-10T01:35:28;5.47;;;1.20;;
37339;SDS011;23223;51.006;7.610;2022-07-10T01:37:53;5.95;;;1.23;;
37339;SDS011;23223;51.006;7.610;2022-07-10T01:40:19;6.40;;;1.08;;
37339;SDS011;23223;51.006;7.610;2022-07-10T01:42:44;6.72;;;1.48;;
37339;SDS011;23223;51.006;7.610;2022-07-10T01:45:10;3.95;;;1.40;;
37339;SDS011;23223;51.006;7.610;2022-07-10T01:47:36;2.60;;;0.75;;
37339;SDS011;23223;51.006;7.610;2022-07-10T01:50:02;2.40;;;0.80;;
37339;SDS011;23223;51.006;7.610;2022-07-10T01:52:29;6.45;;;1.60;;
37339;SDS011;23223;51.006;7.610;2022-07-10T01:54:55;3.83;;;1.90;;
37339;SDS011;23223;51.006;7.610;2022-07-10T01:57:20;4.97;;;2.30;;
37339;SDS011;23223;51.006;7.610;2022-07-10T01:59:46;6.38;;;1.20;;
37339;SDS011;23223;51.006;7.610;2022-07-10T02:02:11;5.18;;;1.50;;
37339;SDS011;23223;51.006;7.610;2022-07-10T02:04:37;2.70;;;1.65;;
37339;SDS011;23223;51.006;7.610;2022-07-10T02:07:13;6.72;;;1.50;;
37339;SDS011;23223;51.006;7.610;2022-07-10T02:09:40;6.72;;;1.67;;
37339;SDS011;23223;51.006;7.610;2022-07-10T02:12:07;9.27;;;1.80;;
37339;SDS011;23223;51.006;7.610;2022-07-10T02:14:34;2.65;;;1.10;;
37339;SDS011;23223;51.006;7.610;2022-07-10T02:17:00;4.80;;;1.42;;
37339;SDS011;23223;51.006;7.610;2022-07-10T02:19:26;2.97;;;1.30;;
37339;SDS011;23223;51.006;7.610;2022-07-10T02:21:52;3.17;;;1.40;;
37339;SDS011;23223;51.006;7.610;2022-07-10T02:24:18;5.95;;;1.85;;
37339;SDS011;23223;51.006;7.610;2022-07-10T02:26:44;8.20;;;2.33;;
37339;SDS011;23223;51.006;7.610;2022-07-10T02:29:09;6.88;;;2.13;;
37339;SDS011;23223;51.006;7.610;2022-07-10T02:31:35;5.43;;;2.67;;
37339;SDS011;23223;51.006;7.610;2022-07-10T02:34:05;3.75;;;1.80;;
37339;SDS011;23223;51.006;7.610;2022-07-10T02:36:32;4.07;;;1.85;;
37339;SDS011;23223;51.006;7.610;2022-07-10T02:38:58;9.02;;;1.92;;
37339;SDS011;23223;51.006;7.610;2022-07-10T02:41:24;4.13;;;1.52;;
37339;SDS011;23223;51.006;7.610;2022-07-10T02:43:49;3.28;;;1.38;;
37339;SDS011;23223;51.006;7.610;2022-07-10T02:46:15;5.75;;;1.50;;
37339;SDS011;23223;51.006;7.610;2022-07-10T02:48:41;5.00;;;1.70;;
37339;SDS011;23223;51.006;7.610;2022-07-10T02:51:06;3.28;;;1.55;;
37339;SDS011;23223;51.006;7.610;2022-07-10T02:53:32;7.18;;;1.27;;
37339;SDS011;23223;51.006;7.610;2022-07-10T02:55:58;7.93;;;1.52;;
37339;SDS011;23223;51.006;7.610;2022-07-10T02:58:23;3.38;;;1.63;;
37339;SDS011;23223;51.006;7.610;2022-07-10T03:00:49;6.35;;;1.40;;
37339;SDS011;23223;51.006;7.610;2022-07-10T03:03:14;3.03;;;1.65;;
37339;SDS011;23223;51.006;7.610;2022-07-10T03:05:42;5.03;;;1.13;;
37339;SDS011;23223;51.006;7.610;2022-07-10T03:08:09;4.03;;;1.58;;
37339;SDS011;23223;51.006;7.610;2022-07-10T03:10:34;6.10;;;1.70;;
37339;SDS011;23223;51.006;7.610;2022-07-10T03:13:00;7.78;;;1.50;;
37339;SDS011;23223;51.006;7.610;2022-07-10T03:15:26;4.95;;;1.60;;
37339;SDS011;23223;51.006;7.610;2022-07-10T03:17:52;5.88;;;3.30;;
37339;SDS011;23223;51.006;7.610;2022-07-10T03:20:17;2.53;;;1.60;;
37339;SDS011;23223;51.006;7.610;2022-07-10T03:22:43;7.18;;;2.45;;
37339;SDS011;23223;51.006;7.610;2022-07-10T03:25:09;3.40;;;1.45;;
37339;SDS011;23223;51.006;7.610;2022-07-10T03:27:34;4.72;;;1.20;;
37339;SDS011;23223;51.006;7.610;2022-07-10T03:30:00;9.10;;;1.23;;
37339;SDS011;23223;51.006;7.610;2022-07-10T03:32:26;5.75;;;1.13;;
37339;SDS011;23223;51.006;7.610;2022-07-10T03:34:52;1.98;;;1.00;;
37339;SDS011;23223;51.006;7.610;2022-07-10T03:37:17;4.18;;;1.35;;
37339;SDS011;23223;51.006;7.610;2022-07-10T03:39:43;7.68;;;2.03;;
37339;SDS011;23223;51.006;7.610;2022-07-10T03:42:08;3.17;;;1.55;;
37339;SDS011;23223;51.006;7.610;2022-07-10T03:44:34;5.22;;;1.38;;
37339;SDS011;23223;51.006;7.610;2022-07-10T03:46:59;4.43;;;1.77;;
37339;SDS011;23223;51.006;7.610;2022-07-10T03:49:25;1.15;;;0.98;;
37339;SDS011;23223;51.006;7.610;2022-07-10T03:51:51;3.50;;;1.30;;
37339;SDS011;23223;51.006;7.610;2022-07-10T03:54:16;3.20;;;1.20;;
37339;SDS011;23223;51.006;7.610;2022-07-10T03:56:42;3.80;;;1.05;;
37339;SDS011;23223;51.006;7.610;2022-07-10T03:59:26;3.15;;;1.40;;
37339;SDS011;23223;51.006;7.610;2022-07-10T04:01:52;4.95;;;1.60;;
37339;SDS011;23223;51.006;7.610;2022-07-10T04:04:18;9.75;;;1.40;;
37339;SDS011;23223;51.006;7.610;2022-07-10T04:06:43;4.07;;;1.15;;
37339;SDS011;23223;51.006;7.610;2022-07-10T04:09:09;5.20;;;1.48;;
37339;SDS011;23223;51.006;7.610;2022-07-10T04:11:34;4.53;;;1.60;;
37339;SDS011;23223;51.006;7.610;2022-07-10T04:14:00;5.88;;;1.52;;
37339;SDS011;23223;51.006;7.610;2022-07-10T04:16:25;4.50;;;0.98;;
37339;SDS011;23223;51.006;7.610;2022-07-10T04:18:51;4.97;;;1.02;;
37339;SDS011;23223;51.006;7.610;2022-07-10T04:21:16;6.22;;;1.35;;
37339;SDS011;23223;51.006;7.610;2022-07-10T04:23:42;2.53;;;1.30;;
37339;SDS011;23223;51.006;7.610;2022-07-10T04:26:07;3.80;;;1.00;;
37339;SDS011;23223;51.006;7.610;2022-07-10T04:28:33;3.33;;;1.02;;
37339;SDS011;23223;51.006;7.610;2022-07-10T04:30:59;3.40;;;1.42;;
37339;SDS011;23223;51.006;7.610;2022-07-10T04:33:25;4.00;;;1.38;;
37339;SDS011;23223;51.006;7.610;2022-07-10T04:35:51;6.38;;;1.40;;
37339;SDS011;23223;51.006;7.610;2022-07-10T04:38:16;3.33;;;1.02;;
37339;SDS011;23223;51.006;7.610;2022-07-10T04:40:42;5.38;;;0.90;;
37339;SDS011;23223;51.006;7.610;2022-07-10T04:43:07;2.55;;;0.93;;
37339;SDS011;23223;51.006;7.610;2022-07-10T04:45:35;5.65;;;1.58;;
37339;SDS011;23223;51.006;7.610;2022-07-10T04:48:02;5.65;;;1.38;;
37339;SDS011;23223;51.006;7.610;2022-07-10T04:50:31;3.85;;;1.27;;
37339;SDS011;23223;51.006;7.610;2022-07-10T04:52:57;3.20;;;1.30;;
37339;SDS011;23223;51.006;7.610;2022-07-10T04:55:22;2.83;;;1.20;;
37339;SDS011;23223;51.006;7.610;2022-07-10T04:57:48;5.68;;;1.50;;
37339;SDS011;23223;51.006;7.610;2022-07-10T05:00:14;7.65;;;1.30;;
37339;SDS011;23223;51.006;7.610;2022-07-10T05:02:40;6.25;;;1.30;;
37339;SDS011;23223;51.006;7.610;2022-07-10T05:05:07;4.93;;;1.38;;
37339;SDS011;23223;51.006;7.610;2022-07-10T05:07:33;6.68;;;1.45;;
37339;SDS011;23223;51.006;7.610;2022-07-10T05:09:58;4.85;;;1.40;;
37339;SDS011;23223;51.006;7.610;2022-07-10T05:12:24;2.28;;;1.15;;
37339;SDS011;23223;51.006;7.610;2022-07-10T05:14:50;3.20;;;1.63;;
37339;SDS011;23223;51.006;7.610;2022-07-10T05:17:16;3.38;;;1.27;;
37339;SDS011;23223;51.006;7.610;2022-07-10T05:19:41;3.97;;;1.10;;
37339;SDS011;23223;51.006;7.610;2022-07-10T05:22:07;13.63;;;2.08;;
37339;SDS011;23223;51.006;7.610;2022-07-10T05:24:34;5.82;;;1.50;;
37339;SDS011;23223;51.006;7.610;2022-07-10T05:27:00;4.30;;;1.10;;
37339;SDS011;23223;51.006;7.610;2022-07-10T05:29:25;4.75;;;1.40;;
37339;SDS011;23223;51.006;7.610;2022-07-10T05:31:51;5.70;;;1.17;;
37339;SDS011;23223;51.006;7.610;2022-07-10T05:34:16;4.65;;;1.20;;
37339;SDS011;23223;51.006;7.610;2022-07-10T05:36:42;3.13;;;1.02;;
37339;SDS011;23223;51.006;7.610;2022-07-10T05:39:07;4.45;;;1.48;;
37339;SDS011;23223;51.006;7.610;2022-07-10T05:41:33;1.60;;;1.00;;
37339;SDS011;23223;51.006;7.610;2022-07-10T05:44:02;5.70;;;1.30;;
37339;SDS011;23223;51.006;7.610;2022-07-10T05:46:27;4.43;;;1.17;;
37339;SDS011;23223;51.006;7.610;2022-07-10T05:48:56;6.60;;;1.60;;
37339;SDS011;23223;51.006;7.610;2022-07-10T05:51:21;5.63;;;1.50;;
37339;SDS011;23223;51.006;7.610;2022-07-10T05:53:47;3.55;;;0.80;;
37339;SDS011;23223;51.006;7.610;2022-07-10T05:56:13;3.40;;;1.10;;
37339;SDS011;23223;51.006;7.610;2022-07-10T05:58:38;3.63;;;0.90;;
37339;SDS011;23223;51.006;7.610;2022-07-10T06:01:04;4.50;;;1.33;;
37339;SDS011;23223;51.006;7.610;2022-07-10T06:03:29;5.93;;;1.35;;
37339;SDS011;23223;51.006;7.610;2022-07-10T06:05:55;3.85;;;1.10;;
37339;SDS011;23223;51.006;7.610;2022-07-10T06:08:20;6.95;;;1.23;;
37339;SDS011;23223;51.006;7.610;2022-07-10T06:10:46;5.28;;;0.82;;
37339;SDS011;23223;51.006;7.610;2022-07-10T06:13:11;5.55;;;1.20;;
37339;SDS011;23223;51.006;7.610;2022-07-10T06:15:37;7.82;;;2.15;;
37339;SDS011;23223;51.006;7.610;2022-07-10T06:18:04;5.30;;;1.20;;
37339;SDS011;23223;51.006;7.610;2022-07-10T06:20:29;7.63;;;2.42;;
37339;SDS011;23223;51.006;7.610;2022-07-10T06:22:56;6.25;;;1.35;;
37339;SDS011;23223;51.006;7.610;2022-07-10T06:25:21;3.60;;;1.27;;
37339;SDS011;23223;51.006;7.610;2022-07-10T06:27:47;7.13;;;1.92;;
37339;SDS011;23223;51.006;7.610;2022-07-10T06:30:13;7.68;;;1.67;;
37339;SDS011;23223;51.006;7.610;2022-07-10T06:32:38;6.00;;;1.48;;
37339;SDS011;23223;51.006;7.610;2022-07-10T06:35:05;5.30;;;1.60;;
37339;SDS011;23223;51.006;7.610;2022-07-10T06:37:32;3.90;;;1.15;;
37339;SDS011;23223;51.006;7.610;2022-07-10T06:39:58;8.43;;;1.70;;
37339;SDS011;23223;51.006;7.610;2022-07-10T06:42:23;5.65;;;1.23;;
37339;SDS011;23223;51.006;7.610;2022-07-10T06:44:49;7.55;;;1.27;;
37339;SDS011;23223;51.006;7.610;2022-07-10T06:47:16;5.15;;;1.38;;
37339;SDS011;23223;51.006;7.610;2022-07-10T06:50:05;12.18;;;1.40;;
37339;SDS011;23223;51.006;7.610;2022-07-10T06:52:32;6.20;;;1.17;;
37339;SDS011;23223;51.006;7.610;2022-07-10T06:54:59;5.65;;;1.10;;
37339;SDS011;23223;51.006;7.610;2022-07-10T06:57:25;4.78;;;1.25;;
37339;SDS011;23223;51.006;7.610;2022-07-10T06:59:51;6.63;;;1.30;;
37339;SDS011;23223;51.006;7.610;2022-07-10T07:02:17;8.25;;;1.55;;
37339;SDS011;23223;51.006;7.610;2022-07-10T07:04:43;4.50;;;1.50;;
37339;SDS011;23223;51.006;7.610;2022-07-10T07:07:12;7.75;;;1.48;;
37339;SDS011;23223;51.006;7.610;2022-07-10T07:09:38;7.45;;;1.50;;
37339;SDS011;23223;51.006;7.610;2022-07-10T07:12:05;6.93;;;1.70;;
37339;SDS011;23223;51.006;7.610;2022-07-10T07:14:31;6.88;;;0.98;;
37339;SDS011;23223;51.006;7.610;2022-07-10T07:16:57;3.53;;;0.90;;
37339;SDS011;23223;51.006;7.610;2022-07-10T07:19:27;12.60;;;1.35;;
37339;SDS011;23223;51.006;7.610;2022-07-10T07:21:57;7.80;;;1.30;;
37339;SDS011;23223;51.006;7.610;2022-07-10T07:24:44;3.42;;;0.77;;
37339;SDS011;23223;51.006;7.610;2022-07-10T07:27:10;4.60;;;1.55;;
37339;SDS011;23223;51.006;7.610;2022-07-10T07:29:36;4.93;;;1.20;;
37339;SDS011;23223;51.006;7.610;2022-07-10T07:32:02;7.70;;;1.38;;
37339;SDS011;23223;51.006;7.610;2022-07-10T07:34:28;4.55;;;1.35;;
37339;SDS011;23223;51.006;7.610;2022-07-10T07:36:54;5.40;;;1.10;;
37339;SDS011;23223;51.006;7.610;2022-07-10T07:39:19;3.30;;;1.10;;
37339;SDS011;23223;51.006;7.610;2022-07-10T07:41:45;3.60;;;1.13;;
37339;SDS011;23223;51.006;7.610;2022-07-10T07:44:11;4.72;;;1.35;;
37339;SDS011;23223;51.006;7.610;2022-07-10T07:46:37;3.42;;;1.05;;
37339;SDS011;23223;51.006;7.610;2022-07-10T07:49:02;6.00;;;1.30;;
37339;SDS011;23223;51.006;7.610;2022-07-10T07:51:28;4.68;;;1.00;;
37339;SDS011;23223;51.006;7.610;2022-07-10T07:53:54;4.93;;;1.35;;
37339;SDS011;23223;51.006;7.610;2022-07-10T07:56:19;2.35;;;0.77;;
37339;SDS011;23223;51.006;7.610;2022-07-10T07:58:45;10.57;;;1.55;;
37339;SDS011;23223;51.006;7.610;2022-07-10T08:01:10;4.38;;;1.17;;
37339;SDS011;23223;51.006;7.610;2022-07-10T08:03:36;8.25;;;1.20;;
37339;SDS011;23223;51.006;7.610;2022-07-10T08:06:01;7.57;;;1.08;;
37339;SDS011;23223;51.006;7.610;2022-07-10T08:08:27;3.30;;;1.25;;
37339;SDS011;23223;51.006;7.610;2022-07-10T08:10:52;7.57;;;1.10;;
37339;SDS011;23223;51.006;7.610;2022-07-10T08:13:18;5.18;;;1.08;;
37339;SDS011;23223;51.006;7.610;2022-07-10T08:15:43;4.57;;;1.42;;
37339;SDS011;23223;51.006;7.610;2022-07-10T08:18:09;7.07;;;1.23;;
37339;SDS011;23223;51.006;7.610;2022-07-10T08:20:34;5.82;;;1.33;;
37339;SDS011;23223;51.006;7.610;2022-07-10T08:23:00;5.10;;;1.60;;
37339;SDS011;23223;51.006;7.610;2022-07-10T08:25:27;4.38;;;1.20;;
37339;SDS011;23223;51.006;7.610;2022-07-10T08:27:56;6.95;;;1.45;;
37339;SDS011;23223;51.006;7.610;2022-07-10T08:30:26;4.90;;;1.10;;
37339;SDS011;23223;51.006;7.610;2022-07-10T08:32:51;5.15;;;1.13;;
37339;SDS011;23223;51.006;7.610;2022-07-10T08:35:17;5.18;;;1.45;;
37339;SDS011;23223;51.006;7.610;2022-07-10T08:37:43;4.53;;;0.90;;
37339;SDS011;23223;51.006;7.610;2022-07-10T08:40:10;7.28;;;1.33;;
37339;SDS011;23223;51.006;7.610;2022-07-10T08:42:38;4.70;;;1.13;;
37339;SDS011;23223;51.006;7.610;2022-07-10T08:45:04;6.60;;;1.17;;
37339;SDS011;23223;51.006;7.610;2022-07-10T08:47:33;6.45;;;1.70;;
37339;SDS011;23223;51.006;7.610;2022-07-10T08:49:59;7.13;;;1.25;;
37339;SDS011;23223;51.006;7.610;2022-07-10T08:54:52;4.15;;;1.40;;
37339;SDS011;23223;51.006;7.610;2022-07-10T08:57:18;2.33;;;1.13;;
37339;SDS011;23223;51.006;7.610;2022-07-10T08:59:45;6.15;;;1.35;;
37339;SDS011;23223;51.006;7.610;2022-07-10T09:02:10;4.85;;;1.48;;
37339;SDS011;23223;51.006;7.610;2022-07-10T09:04:36;6.80;;;1.20;;
37339;SDS011;23223;51.006;7.610;2022-07-10T09:07:01;8.07;;;1.92;;
37339;SDS011;23223;51.006;7.610;2022-07-10T09:09:29;7.82;;;2.53;;
37339;SDS011;23223;51.006;7.610;2022-07-10T09:11:55;7.68;;;1.85;;
37339;SDS011;23223;51.006;7.610;2022-07-10T09:14:22;5.97;;;1.17;;
37339;SDS011;23223;51.006;7.610;2022-07-10T09:16:50;8.80;;;2.08;;
37339;SDS011;23223;51.006;7.610;2022-07-10T09:19:20;4.53;;;1.27;;
37339;SDS011;23223;51.006;7.610;2022-07-10T09:21:54;3.40;;;1.23;;
37339;SDS011;23223;51.006;7.610;2022-07-10T09:24:28;5.13;;;1.20;;
37339;SDS011;23223;51.006;7.610;2022-07-10T09:27:03;9.15;;;1.38;;
37339;SDS011;23223;51.006;7.610;2022-07-10T09:29:30;10.65;;;1.52;;
37339;SDS011;23223;51.006;7.610;2022-07-10T09:32:00;5.78;;;1.50;;
37339;SDS011;23223;51.006;7.610;2022-07-10T09:34:36;6.10;;;1.10;;
37339;SDS011;23223;51.006;7.610;2022-07-10T09:37:20;4.70;;;1.15;;
37339;SDS011;23223;51.006;7.610;2022-07-10T09:39:54;3.90;;;1.33;;
37339;SDS011;23223;51.006;7.610;2022-07-10T09:42:28;11.15;;;1.70;;
37339;SDS011;23223;51.006;7.610;2022-07-10T09:47:38;5.82;;;0.90;;
37339;SDS011;23223;51.006;7.610;2022-07-10T09:50:07;4.18;;;1.27;;
37339;SDS011;23223;51.006;7.610;2022-07-10T09:52:51;3.33;;;0.85;;
37339;SDS011;23223;51.006;7.610;2022-07-10T09:55:22;7.25;;;1.48;;
37339;SDS011;23223;51.006;7.610;2022-07-10T09:57:53;5.18;;;1.10;;
37339;SDS011;23223;51.006;7.610;2022-07-10T10:00:24;4.18;;;1.00;;
37339;SDS011;23223;51.006;7.610;2022-07-10T10:02:54;3.35;;;1.00;;
37339;SDS011;23223;51.006;7.610;2022-07-10T10:08:17;3.88;;;0.90;;
37339;SDS011;23223;51.006;7.610;2022-07-10T10:10:46;8.63;;;1.33;;
37339;SDS011;23223;51.006;7.610;2022-07-10T10:13:15;3.42;;;1.20;;
37339;SDS011;23223;51.006;7.610;2022-07-10T10:15:43;5.32;;;1.17;;
37339;SDS011;23223;51.006;7.610;2022-07-10T10:18:10;3.15;;;0.95;;
37339;SDS011;23223;51.006;7.610;2022-07-10T10:20:37;4.30;;;1.02;;
37339;SDS011;23223;51.006;7.610;2022-07-10T10:23:09;3.95;;;1.10;;
37339;SDS011;23223;51.006;7.610;2022-07-10T10:25:36;6.40;;;1.33;;
37339;SDS011;23223;51.006;7.610;2022-07-10T10:28:04;3.17;;;1.50;;
37339;SDS011;23223;51.006;7.610;2022-07-10T10:30:32;1.88;;;0.82;;
37339;SDS011;23223;51.006;7.610;2022-07-10T10:33:00;5.18;;;1.20;;
37339;SDS011;23223;51.006;7.610;2022-07-10T10:35:42;6.22;;;1.95;;
37339;SDS011;23223;51.006;7.610;2022-07-10T10:38:14;1.80;;;0.80;;
37339;SDS011;23223;51.006;7.610;2022-07-10T10:40:40;3.90;;;1.50;;
37339;SDS011;23223;51.006;7.610;2022-07-10T10:43:16;6.85;;;1.15;;
37339;SDS011;23223;51.006;7.610;2022-07-10T10:45:42;4.60;;;1.10;;
37339;SDS011;23223;51.006;7.610;2022-07-10T10:48:10;1.98;;;0.50;;
37339;SDS011;23223;51.006;7.610;2022-07-10T10:50:40;3.08;;;1.23;;
37339;SDS011;23223;51.006;7.610;2022-07-10T10:53:14;1.63;;;1.05;;
37339;SDS011;23223;51.006;7.610;2022-07-10T10:55:41;1.50;;;1.02;;
37339;SDS011;23223;51.006;7.610;2022-07-10T10:58:27;2.95;;;1.00;;
37339;SDS011;23223;51.006;7.610;2022-07-10T11:01:03;4.85;;;1.20;;
37339;SDS011;23223;51.006;7.610;2022-07-10T11:03:30;8.35;;;1.38;;
37339;SDS011;23223;51.006;7.610;2022-07-10T11:05:56;2.78;;;0.80;;
37339;SDS011;23223;51.006;7.610;2022-07-10T11:08:34;3.42;;;0.85;;
37339;SDS011;23223;51.006;7.610;2022-07-10T11:11:02;2.25;;;0.77;;
37339;SDS011;23223;51.006;7.610;2022-07-10T11:13:56;4.82;;;1.27;;
37339;SDS011;23223;51.006;7.610;2022-07-10T11:16:23;1.50;;;0.90;;
37339;SDS011;23223;51.006;7.610;2022-07-10T11:18:52;4.20;;;1.00;;
37339;SDS011;23223;51.006;7.610;2022-07-10T11:21:21;2.03;;;0.93;;
37339;SDS011;23223;51.006;7.610;2022-07-10T11:29:02;3.58;;;0.60;;
37339;SDS011;23223;51.006;7.610;2022-07-10T11:31:30;2.30;;;0.95;;
37339;SDS011;23223;51.006;7.610;2022-07-10T11:33:59;2.40;;;0.80;;
37339;SDS011;23223;51.006;7.610;2022-07-10T11:36:25;2.05;;;0.80;;
37339;SDS011;23223;51.006;7.610;2022-07-10T11:38:58;1.30;;;0.68;;
37339;SDS011;23223;51.006;7.610;2022-07-10T11:41:28;1.08;;;0.80;;
37339;SDS011;23223;51.006;7.610;2022-07-10T11:43:55;1.45;;;0.63;;
37339;SDS011;23223;51.006;7.610;2022-07-10T11:46:26;1.85;;;0.70;;
37339;SDS011;23223;51.006;7.610;2022-07-10T11:48:53;2.60;;;0.65;;
37339;SDS011;23223;51.006;7.610;2022-07-10T11:53:57;0.93;;;0.57;;
37339;SDS011;23223;51.006;7.610;2022-07-10T11:56:31;2.38;;;0.68;;
37339;SDS011;23223;51.006;7.610;2022-07-10T11:59:01;1.30;;;0.77;;
37339;SDS011;23223;51.006;7.610;2022-07-10T12:01:29;1.20;;;0.75;;
37339;SDS011;23223;51.006;7.610;2022-07-10T12:04:02;1.17;;;0.70;;
37339;SDS011;23223;51.006;7.610;2022-07-10T12:06:30;1.23;;;0.75;;
37339;SDS011;23223;51.006;7.610;2022-07-10T12:09:00;1.52;;;0.70;;
37339;SDS011;23223;51.006;7.610;2022-07-10T12:11:30;1.55;;;0.75;;
37339;SDS011;23223;51.006;7.610;2022-07-10T12:16:43;2.35;;;1.02;;
37339;SDS011;23223;51.006;7.610;2022-07-10T12:19:12;0.70;;;0.70;;
37339;SDS011;23223;51.006;7.610;2022-07-10T12:21:42;2.88;;;1.00;;
37339;SDS011;23223;51.006;7.610;2022-07-10T12:24:09;2.42;;;0.70;;
37339;SDS011;23223;51.006;7.610;2022-07-10T12:26:37;3.42;;;0.85;;
37339;SDS011;23223;51.006;7.610;2022-07-10T12:29:07;1.17;;;1.02;;
37339;SDS011;23223;51.006;7.610;2022-07-10T12:32:09;1.38;;;0.95;;
37339;SDS011;23223;51.006;7.610;2022-07-10T12:34:37;0.75;;;0.75;;
37339;SDS011;23223;51.006;7.610;2022-07-10T12:37:08;1.98;;;0.70;;
37339;SDS011;23223;51.006;7.610;2022-07-10T12:39:45;2.10;;;0.93;;
37339;SDS011;23223;51.006;7.610;2022-07-10T12:42:23;0.60;;;0.60;;
37339;SDS011;23223;51.006;7.610;2022-07-10T12:45:14;1.33;;;0.95;;
37339;SDS011;23223;51.006;7.610;2022-07-10T12:47:44;1.30;;;0.50;;
37339;SDS011;23223;51.006;7.610;2022-07-10T12:50:11;1.20;;;0.50;;
37339;SDS011;23223;51.006;7.610;2022-07-10T12:52:38;0.95;;;0.85;;
37339;SDS011;23223;51.006;7.610;2022-07-10T12:55:20;0.85;;;0.85;;
37339;SDS011;23223;51.006;7.610;2022-07-10T13:00:23;0.80;;;0.80;;
37339;SDS011;23223;51.006;7.610;2022-07-10T13:03:01;3.92;;;2.13;;
37339;SDS011;23223;51.006;7.610;2022-07-10T13:05:32;2.40;;;2.20;;
37339;SDS011;23223;51.006;7.610;2022-07-10T13:10:50;3.40;;;2.60;;
37339;SDS011;23223;51.006;7.610;2022-07-10T13:13:26;5.00;;;2.90;;
37339;SDS011;23223;51.006;7.610;2022-07-10T13:15:53;5.50;;;3.35;;
37339;SDS011;23223;51.006;7.610;2022-07-10T13:18:20;4.80;;;3.47;;
37339;SDS011;23223;51.006;7.610;2022-07-10T13:20:47;6.20;;;3.13;;
37339;SDS011;23223;51.006;7.610;2022-07-10T13:23:14;6.32;;;4.05;;
37339;SDS011;23223;51.006;7.610;2022-07-10T13:25:40;4.25;;;3.78;;
37339;SDS011;23223;51.006;7.610;2022-07-10T13:28:07;2.83;;;2.60;;
37339;SDS011;23223;51.006;7.610;2022-07-10T13:30:34;4.07;;;2.50;;
37339;SDS011;23223;51.006;7.610;2022-07-10T13:33:00;5.10;;;3.60;;
37339;SDS011;23223;51.006;7.610;2022-07-10T13:35:29;5.18;;;4.10;;
37339;SDS011;23223;51.006;7.610;2022-07-10T13:37:56;5.57;;;3.40;;
37339;SDS011;23223;51.006;7.610;2022-07-10T13:40:29;5.75;;;4.45;;
37339;SDS011;23223;51.006;7.610;2022-07-10T13:42:56;4.18;;;3.10;;
37339;SDS011;23223;51.006;7.610;2022-07-10T13:45:23;5.05;;;4.53;;
37339;SDS011;23223;51.006;7.610;2022-07-10T13:47:50;4.55;;;4.10;;
37339;SDS011;23223;51.006;7.610;2022-07-10T13:50:18;5.90;;;4.63;;
37339;SDS011;23223;51.006;7.610;2022-07-10T13:52:44;5.03;;;4.45;;
37339;SDS011;23223;51.006;7.610;2022-07-10T13:55:09;5.15;;;3.90;;
37339;SDS011;23223;51.006;7.610;2022-07-10T13:57:35;4.38;;;3.97;;
37339;SDS011;23223;51.006;7.610;2022-07-10T14:00:01;4.03;;;3.50;;
37339;SDS011;23223;51.006;7.610;2022-07-10T14:02:26;2.85;;;2.47;;
37339;SDS011;23223;51.006;7.610;2022-07-10T14:04:52;2.90;;;2.70;;
37339;SDS011;23223;51.006;7.610;2022-07-10T14:07:17;2.78;;;2.40;;
37339;SDS011;23223;51.006;7.610;2022-07-10T14:09:43;2.58;;;2.38;;
37339;SDS011;23223;51.006;7.610;2022-07-10T14:12:09;4.28;;;2.20;;
37339;SDS011;23223;51.006;7.610;2022-07-10T14:14:35;3.05;;;2.65;;
37339;SDS011;23223;51.006;7.610;2022-07-10T14:17:01;3.00;;;2.42;;
37339;SDS011;23223;51.006;7.610;2022-07-10T14:19:26;2.45;;;1.98;;
37339;SDS011;23223;51.006;7.610;2022-07-10T14:21:52;3.35;;;2.70;;
37339;SDS011;23223;51.006;7.610;2022-07-10T14:24:17;3.53;;;3.22;;
37339;SDS011;23223;51.006;7.610;2022-07-10T14:26:43;5.45;;;3.70;;
37339;SDS011;23223;51.006;7.610;2022-07-10T14:29:08;4.47;;;2.67;;
37339;SDS011;23223;51.006;7.610;2022-07-10T14:31:34;3.50;;;2.83;;
37339;SDS011;23223;51.006;7.610;2022-07-10T14:34:00;5.28;;;3.80;;
37339;SDS011;23223;51.006;7.610;2022-07-10T14:36:25;3.72;;;3.42;;
37339;SDS011;23223;51.006;7.610;2022-07-10T14:38:55;2.28;;;2.03;;
37339;SDS011;23223;51.006;7.610;2022-07-10T14:41:24;7.47;;;3.70;;
37339;SDS011;23223;51.006;7.610;2022-07-10T14:43:50;4.13;;;2.85;;
37339;SDS011;23223;51.006;7.610;2022-07-10T14:46:16;3.83;;;3.00;;
37339;SDS011;23223;51.006;7.610;2022-07-10T14:48:42;4.47;;;3.42;;
37339;SDS011;23223;51.006;7.610;2022-07-10T14:51:07;3.00;;;2.80;;
37339;SDS011;23223;51.006;7.610;2022-07-10T14:53:34;3.05;;;2.58;;
37339;SDS011;23223;51.006;7.610;2022-07-10T14:56:03;3.85;;;3.55;;
37339;SDS011;23223;51.006;7.610;2022-07-10T14:58:29;4.05;;;3.60;;
37339;SDS011;23223;51.006;7.610;2022-07-10T15:00:55;3.42;;;3.13;;
37339;SDS011;23223;51.006;7.610;2022-07-10T15:03:20;3.58;;;3.28;;
37339;SDS011;23223;51.006;7.610;2022-07-10T15:05:46;3.88;;;3.47;;
37339;SDS011;23223;51.006;7.610;2022-07-10T15:08:12;3.70;;;3.33;;
37339;SDS011;23223;51.006;7.610;2022-07-10T15:10:37;2.70;;;2.30;;
37339;SDS011;23223;51.006;7.610;2022-07-10T15:13:03;2.28;;;2.03;;